sensor_id;sensor_type;location;lat;lon;timestamp;temperature;humidity
7427;DHT22;3755;59.316;18.092;2022-09-16T00:01:09;10.70;99.90
7427;DHT22;3755;59.316;18.092;2022-09-16T00:03:36;10.80;99.90
7427;DHT22;3755;59.316;18.092;2022-09-16T00:06:03;10.80;99.90
7427;DHT22;3755;59.316;18.092;2022-09-16T00:08:30;10.80;99.90
7427;DHT22;3755;59.316;18.092;2022-09-16T00:10:59;10.90;99.90
7427;DHT22;3755;59.316;18.092;2022-09-16T00:13:28;10.80;99.90
7427;DHT22;3755;59.316;18.092;2022-09-16T00:15:55;10.70;99.90
7427;DHT22;3755;59.316;18.092;2022-09-16T00:18:22;10.70;99.90
7427;DHT22;3755;59.316;18.092;2022-09-16T00:20:50;10.80;99.90
7427;DHT22;3755;59.316;18.092;2022-09-16T00:23:19;10.70;99.90
7427;DHT22;3755;59.316;18.092;2022-09-16T00:25:50;10.70;99.90
7427;DHT22;3755;59.316;18.092;2022-09-16T00:28:18;10.80;99.90
7427;DHT22;3755;59.316;18.092;2022-09-16T00:30:47;10.80;99.90
7427;DHT22;3755;59.316;18.092;2022-09-16T00:33:16;10.80;99.90
7427;DHT22;3755;59.316;18.092;2022-09-16T00:35:43;10.80;99.90
7427;DHT22;3755;59.316;18.092;2022-09-16T00:38:10;10.80;99.90
7427;DHT22;3755;59.316;18.092;2022-09-16T00:40:43;10.80;99.90
7427;DHT22;3755;59.316;18.092;2022-09-16T00:43:12;10.80;99.90
7427;DHT22;3755;59.316;18.092;2022-09-16T00:45:39;10.80;99.90
7427;DHT22;3755;59.316;18.092;2022-09-16T00:48:11;10.80;99.90
7427;DHT22;3755;59.316;18.092;2022-09-16T00:50:43;10.80;99.90
7427;DHT22;3755;59.316;18.092;2022-09-16T00:53:16;10.70;99.90
7427;DHT22;3755;59.316;18.092;2022-09-16T00:55:44;10.70;99.90
7427;DHT22;3755;59.316;18.092;2022-09-16T00:58:14;10.80;99.90
7427;DHT22;3755;59.316;18.092;2022-09-16T01:00:43;10.80;99.90
7427;DHT22;3755;59.316;18.092;2022-09-16T01:03:11;10.80;99.90
7427;DHT22;3755;59.316;18.092;2022-09-16T01:05:38;10.80;99.90
7427;DHT22;3755;59.316;18.092;2022-09-16T01:08:06;10.70;99.90
7427;DHT22;3755;59.316;18.092;2022-09-16T01:10:33;10.70;99.90
7427;DHT22;3755;59.316;18.092;2022-09-16T01:13:02;10.80;99.90
7427;DHT22;3755;59.316;18.092;2022-09-16T01:15:41;10.80;99.90
7427;DHT22;3755;59.316;18.092;2022-09-16T01:18:16;10.80;99.90
7427;DHT22;3755;59.316;18.092;2022-09-16T01:21:11;10.80;99.90
7427;DHT22;3755;59.316;18.092;2022-09-16T01:24:01;10.80;99.90
7427;DHT22;3755;59.316;18.092;2022-09-16T01:29:38;10.80;99.90
7427;DHT22;3755;59.316;18.092;2022-09-16T01:32:15;10.80;99.90
7427;DHT22;3755;59.316;18.092;2022-09-16T01:34:49;10.70;99.90
7427;DHT22;3755;59.316;18.092;2022-09-16T01:37:27;10.70;99.90
7427;DHT22;3755;59.316;18.092;2022-09-16T01:40:01;10.70;99.90
7427;DHT22;3755;59.316;18.092;2022-09-16T01:42:36;10.70;99.90
7427;DHT22;3755;59.316;18.092;2022-09-16T01:45:07;10.70;99.90
7427;DHT22;3755;59.316;18.092;2022-09-16T01:47:44;10.70;99.90
7427;DHT22;3755;59.316;18.092;2022-09-16T01:50:18;10.70;99.90
7427;DHT22;3755;59.316;18.092;2022-09-16T01:52:53;10.60;99.90
7427;DHT22;3755;59.316;18.092;2022-09-16T01:55:25;10.70;99.90
7427;DHT22;3755;59.316;18.092;2022-09-16T01:57:59;10.60;99.90
7427;DHT22;3755;59.316;18.092;2022-09-16T02:00:27;10.60;99.90
7427;DHT22;3755;59.316;18.092;2022-09-16T02:03:00;10.60;99.90
7427;DHT22;3755;59.316;18.092;2022-09-16T02:05:32;10.60;99.90
7427;DHT22;3755;59.316;18.092;2022-09-16T02:08:02;10.70;99.90
7427;DHT22;3755;59.316;18.092;2022-09-16T02:10:34;10.60;99.90
7427;DHT22;3755;59.316;18.092;2022-09-16T02:13:07;10.60;99.90
7427;DHT22;3755;59.316;18.092;2022-09-16T02:15:37;10.70;99.90
7427;DHT22;3755;59.316;18.092;2022-09-16T02:18:10;10.70;99.90
7427;DHT22;3755;59.316;18.092;2022-09-16T02:20:41;10.20;99.90
7427;DHT22;3755;59.316;18.092;2022-09-16T02:23:13;10.70;99.90
7427;DHT22;3755;59.316;18.092;2022-09-16T02:25:44;10.80;99.90
7427;DHT22;3755;59.316;18.092;2022-09-16T02:28:16;10.80;99.90
7427;DHT22;3755;59.316;18.092;2022-09-16T02:30:46;10.80;99.90
7427;DHT22;3755;59.316;18.092;2022-09-16T02:33:17;10.70;99.90
7427;DHT22;3755;59.316;18.092;2022-09-16T02:35:46;10.80;99.90
7427;DHT22;3755;59.316;18.092;2022-09-16T02:38:20;10.70;99.90
7427;DHT22;3755;59.316;18.092;2022-09-16T02:40:51;10.70;99.90
7427;DHT22;3755;59.316;18.092;2022-09-16T02:43:20;10.70;99.90
7427;DHT22;3755;59.316;18.092;2022-09-16T02:45:53;10.70;99.90
7427;DHT22;3755;59.316;18.092;2022-09-16T02:48:31;10.70;99.90
7427;DHT22;3755;59.316;18.092;2022-09-16T02:51:05;10.70;99.90
7427;DHT22;3755;59.316;18.092;2022-09-16T02:53:44;10.70;99.90
7427;DHT22;3755;59.316;18.092;2022-09-16T02:56:18;10.70;99.90
7427;DHT22;3755;59.316;18.092;2022-09-16T02:58:47;10.70;99.90
7427;DHT22;3755;59.316;18.092;2022-09-16T03:01:15;10.60;99.90
7427;DHT22;3755;59.316;18.092;2022-09-16T03:03:45;10.60;99.90
7427;DHT22;3755;59.316;18.092;2022-09-16T03:06:18;10.60;99.90
7427;DHT22;3755;59.316;18.092;2022-09-16T03:08:46;10.60;99.90
7427;DHT22;3755;59.316;18.092;2022-09-16T03:11:33;10.30;99.90
7427;DHT22;3755;59.316;18.092;2022-09-16T03:17:03;10.70;99.90
7427;DHT22;3755;59.316;18.092;2022-09-16T03:19:42;10.70;99.90
7427;DHT22;3755;59.316;18.092;2022-09-16T03:22:20;10.70;99.90
7427;DHT22;3755;59.316;18.092;2022-09-16T03:24:54;10.70;99.90
7427;DHT22;3755;59.316;18.092;2022-09-16T03:27:27;10.70;99.90
7427;DHT22;3755;59.316;18.092;2022-09-16T03:30:01;10.70;99.90
7427;DHT22;3755;59.316;18.092;2022-09-16T03:32:31;10.60;99.90
7427;DHT22;3755;59.316;18.092;2022-09-16T03:35:04;10.60;99.90
7427;DHT22;3755;59.316;18.092;2022-09-16T03:37:36;10.70;99.90
7427;DHT22;3755;59.316;18.092;2022-09-16T03:40:08;10.70;99.90
7427;DHT22;3755;59.316;18.092;2022-09-16T03:42:38;10.60;99.90
7427;DHT22;3755;59.316;18.092;2022-09-16T03:45:06;10.70;99.90
7427;DHT22;3755;59.316;18.092;2022-09-16T03:47:33;10.70;99.90
7427;DHT22;3755;59.316;18.092;2022-09-16T03:50:03;10.70;99.90
7427;DHT22;3755;59.316;18.092;2022-09-16T03:52:31;10.70;99.90
7427;DHT22;3755;59.316;18.092;2022-09-16T03:54:59;10.70;99.90
7427;DHT22;3755;59.316;18.092;2022-09-16T03:57:26;10.70;99.90
7427;DHT22;3755;59.316;18.092;2022-09-16T03:59:58;10.70;99.90
7427;DHT22;3755;59.316;18.092;2022-09-16T04:02:25;10.70;99.90
7427;DHT22;3755;59.316;18.092;2022-09-16T04:04:52;10.70;99.90
7427;DHT22;3755;59.316;18.092;2022-09-16T04:07:20;10.60;99.90
7427;DHT22;3755;59.316;18.092;2022-09-16T04:09:47;10.70;99.90
7427;DHT22;3755;59.316;18.092;2022-09-16T04:12:14;10.60;99.90
7427;DHT22;3755;59.316;18.092;2022-09-16T04:14:41;10.70;99.90
7427;DHT22;3755;59.316;18.092;2022-09-16T04:17:09;10.30;99.90
7427;DHT22;3755;59.316;18.092;2022-09-16T04:19:36;10.70;99.90
7427;DHT22;3755;59.316;18.092;2022-09-16T04:22:04;10.70;99.90
7427;DHT22;3755;59.316;18.092;2022-09-16T04:24:32;10.70;99.90
7427;DHT22;3755;59.316;18.092;2022-09-16T04:27:00;10.70;99.90
7427;DHT22;3755;59.316;18.092;2022-09-16T04:29:27;10.70;99.90
7427;DHT22;3755;59.316;18.092;2022-09-16T04:31:54;10.70;99.90
7427;DHT22;3755;59.316;18.092;2022-09-16T04:34:21;10.80;99.90
7427;DHT22;3755;59.316;18.092;2022-09-16T04:36:49;10.80;99.90
7427;DHT22;3755;59.316;18.092;2022-09-16T04:39:16;10.80;99.90
7427;DHT22;3755;59.316;18.092;2022-09-16T04:41:44;10.80;99.90
7427;DHT22;3755;59.316;18.092;2022-09-16T04:44:11;10.80;99.90
7427;DHT22;3755;59.316;18.092;2022-09-16T04:46:39;10.80;99.90
7427;DHT22;3755;59.316;18.092;2022-09-16T04:49:06;10.80;99.90
7427;DHT22;3755;59.316;18.092;2022-09-16T04:51:33;10.80;99.90
7427;DHT22;3755;59.316;18.092;2022-09-16T04:54:00;10.80;99.90
7427;DHT22;3755;59.316;18.092;2022-09-16T04:56:29;10.80;99.90
7427;DHT22;3755;59.316;18.092;2022-09-16T04:59:00;10.80;99.90
7427;DHT22;3755;59.316;18.092;2022-09-16T05:01:31;10.80;99.90
7427;DHT22;3755;59.316;18.092;2022-09-16T05:04:01;10.90;99.90
7427;DHT22;3755;59.316;18.092;2022-09-16T05:06:31;10.80;99.90
7427;DHT22;3755;59.316;18.092;2022-09-16T05:08:59;10.80;99.90
7427;DHT22;3755;59.316;18.092;2022-09-16T05:11:28;10.80;99.90
7427;DHT22;3755;59.316;18.092;2022-09-16T05:13:59;10.80;99.90
7427;DHT22;3755;59.316;18.092;2022-09-16T05:16:26;10.90;99.90
7427;DHT22;3755;59.316;18.092;2022-09-16T05:18:55;10.90;99.90
7427;DHT22;3755;59.316;18.092;2022-09-16T05:21:24;10.90;99.90
7427;DHT22;3755;59.316;18.092;2022-09-16T05:23:53;10.90;99.90
7427;DHT22;3755;59.316;18.092;2022-09-16T05:26:24;10.90;99.90
7427;DHT22;3755;59.316;18.092;2022-09-16T05:28:52;10.90;99.90
7427;DHT22;3755;59.316;18.092;2022-09-16T05:31:24;10.90;99.90
7427;DHT22;3755;59.316;18.092;2022-09-16T05:33:54;10.90;99.90
7427;DHT22;3755;59.316;18.092;2022-09-16T05:36:22;11.00;99.90
7427;DHT22;3755;59.316;18.092;2022-09-16T05:38:49;11.00;99.90
7427;DHT22;3755;59.316;18.092;2022-09-16T05:41:16;10.90;99.90
7427;DHT22;3755;59.316;18.092;2022-09-16T05:43:44;11.00;99.90
7427;DHT22;3755;59.316;18.092;2022-09-16T05:46:16;11.00;99.90
7427;DHT22;3755;59.316;18.092;2022-09-16T05:48:47;11.00;99.90
7427;DHT22;3755;59.316;18.092;2022-09-16T05:51:16;11.00;99.90
7427;DHT22;3755;59.316;18.092;2022-09-16T05:53:44;11.00;99.90
7427;DHT22;3755;59.316;18.092;2022-09-16T05:56:14;11.00;99.90
7427;DHT22;3755;59.316;18.092;2022-09-16T05:58:42;11.10;99.90
7427;DHT22;3755;59.316;18.092;2022-09-16T06:01:11;11.20;99.90
7427;DHT22;3755;59.316;18.092;2022-09-16T06:03:41;11.20;99.90
7427;DHT22;3755;59.316;18.092;2022-09-16T06:06:13;11.20;99.90
7427;DHT22;3755;59.316;18.092;2022-09-16T06:08:57;11.20;99.90
7427;DHT22;3755;59.316;18.092;2022-09-16T06:11:40;11.20;99.90
7427;DHT22;3755;59.316;18.092;2022-09-16T06:14:11;11.30;99.90
7427;DHT22;3755;59.316;18.092;2022-09-16T06:16:39;11.10;99.90
7427;DHT22;3755;59.316;18.092;2022-09-16T06:19:10;11.30;99.90
7427;DHT22;3755;59.316;18.092;2022-09-16T06:21:46;11.30;99.90
7427;DHT22;3755;59.316;18.092;2022-09-16T06:24:14;11.30;99.90
7427;DHT22;3755;59.316;18.092;2022-09-16T06:27:17;11.40;99.90
7427;DHT22;3755;59.316;18.092;2022-09-16T06:29:45;11.20;99.90
7427;DHT22;3755;59.316;18.092;2022-09-16T06:32:12;11.40;99.90
7427;DHT22;3755;59.316;18.092;2022-09-16T06:34:40;11.40;99.90
7427;DHT22;3755;59.316;18.092;2022-09-16T06:37:11;11.40;99.90
7427;DHT22;3755;59.316;18.092;2022-09-16T06:39:53;11.50;99.90
7427;DHT22;3755;59.316;18.092;2022-09-16T06:42:35;11.50;99.90
7427;DHT22;3755;59.316;18.092;2022-09-16T06:45:04;11.50;99.90
7427;DHT22;3755;59.316;18.092;2022-09-16T06:47:32;11.50;99.90
7427;DHT22;3755;59.316;18.092;2022-09-16T06:50:14;11.50;99.90
7427;DHT22;3755;59.316;18.092;2022-09-16T06:52:49;11.50;99.90
7427;DHT22;3755;59.316;18.092;2022-09-16T06:55:17;11.50;99.90
7427;DHT22;3755;59.316;18.092;2022-09-16T06:57:45;11.50;99.90
7427;DHT22;3755;59.316;18.092;2022-09-16T07:00:14;11.70;99.90
7427;DHT22;3755;59.316;18.092;2022-09-16T07:02:44;11.60;99.90
7427;DHT22;3755;59.316;18.092;2022-09-16T07:05:12;11.60;99.90
7427;DHT22;3755;59.316;18.092;2022-09-16T07:07:40;11.70;99.90
7427;DHT22;3755;59.316;18.092;2022-09-16T07:10:11;11.70;99.90
7427;DHT22;3755;59.316;18.092;2022-09-16T07:12:39;11.80;99.90
7427;DHT22;3755;59.316;18.092;2022-09-16T07:15:07;11.70;99.90
7427;DHT22;3755;59.316;18.092;2022-09-16T07:17:35;11.80;99.90
7427;DHT22;3755;59.316;18.092;2022-09-16T07:20:04;11.80;99.90
7427;DHT22;3755;59.316;18.092;2022-09-16T07:22:32;11.90;99.90
7427;DHT22;3755;59.316;18.092;2022-09-16T07:25:01;12.10;99.90
7427;DHT22;3755;59.316;18.092;2022-09-16T07:27:35;12.10;99.90
7427;DHT22;3755;59.316;18.092;2022-09-16T07:30:16;12.20;99.90
7427;DHT22;3755;59.316;18.092;2022-09-16T07:32:44;12.20;99.90
7427;DHT22;3755;59.316;18.092;2022-09-16T07:35:11;12.20;99.90
7427;DHT22;3755;59.316;18.092;2022-09-16T07:37:38;12.20;99.90
7427;DHT22;3755;59.316;18.092;2022-09-16T07:40:06;12.30;99.90
7427;DHT22;3755;59.316;18.092;2022-09-16T07:42:35;12.30;99.90
7427;DHT22;3755;59.316;18.092;2022-09-16T07:45:02;12.50;99.90
7427;DHT22;3755;59.316;18.092;2022-09-16T07:47:33;12.40;99.90
7427;DHT22;3755;59.316;18.092;2022-09-16T07:50:01;12.50;99.90
7427;DHT22;3755;59.316;18.092;2022-09-16T07:52:29;12.60;99.90
7427;DHT22;3755;59.316;18.092;2022-09-16T07:55:04;12.70;99.90
7427;DHT22;3755;59.316;18.092;2022-09-16T08:00:54;12.60;99.90
7427;DHT22;3755;59.316;18.092;2022-09-16T08:03:21;12.60;99.90
7427;DHT22;3755;59.316;18.092;2022-09-16T08:05:49;12.70;99.90
7427;DHT22;3755;59.316;18.092;2022-09-16T08:08:22;12.70;99.90
7427;DHT22;3755;59.316;18.092;2022-09-16T08:11:12;12.60;99.90
7427;DHT22;3755;59.316;18.092;2022-09-16T08:13:42;12.70;99.90
7427;DHT22;3755;59.316;18.092;2022-09-16T08:17:03;12.80;99.90
7427;DHT22;3755;59.316;18.092;2022-09-16T08:19:49;12.90;99.90
7427;DHT22;3755;59.316;18.092;2022-09-16T08:25:39;12.80;99.90
7427;DHT22;3755;59.316;18.092;2022-09-16T08:28:21;13.20;99.90
7427;DHT22;3755;59.316;18.092;2022-09-16T08:31:19;13.30;99.90
7427;DHT22;3755;59.316;18.092;2022-09-16T08:34:04;13.30;99.90
7427;DHT22;3755;59.316;18.092;2022-09-16T08:36:49;13.20;99.90
7427;DHT22;3755;59.316;18.092;2022-09-16T08:43:04;13.20;99.90
7427;DHT22;3755;59.316;18.092;2022-09-16T08:45:45;13.20;99.90
7427;DHT22;3755;59.316;18.092;2022-09-16T08:48:26;13.10;99.90
7427;DHT22;3755;59.316;18.092;2022-09-16T08:51:08;13.10;99.90
7427;DHT22;3755;59.316;18.092;2022-09-16T08:57:28;13.20;99.90
7427;DHT22;3755;59.316;18.092;2022-09-16T09:00:14;13.20;99.90
7427;DHT22;3755;59.316;18.092;2022-09-16T09:02:47;13.30;99.90
7427;DHT22;3755;59.316;18.092;2022-09-16T09:05:17;13.20;99.90
7427;DHT22;3755;59.316;18.092;2022-09-16T09:07:56;13.40;99.90
7427;DHT22;3755;59.316;18.092;2022-09-16T09:10:30;13.40;99.90
7427;DHT22;3755;59.316;18.092;2022-09-16T09:13:09;13.50;99.90
7427;DHT22;3755;59.316;18.092;2022-09-16T09:15:42;13.50;99.90
7427;DHT22;3755;59.316;18.092;2022-09-16T09:18:24;13.70;99.90
7427;DHT22;3755;59.316;18.092;2022-09-16T09:20:59;13.70;99.90
7427;DHT22;3755;59.316;18.092;2022-09-16T09:23:56;13.70;99.90
7427;DHT22;3755;59.316;18.092;2022-09-16T09:26:55;13.60;99.90
7427;DHT22;3755;59.316;18.092;2022-09-16T09:29:54;13.60;99.90
7427;DHT22;3755;59.316;18.092;2022-09-16T09:32:43;13.70;99.90
7427;DHT22;3755;59.316;18.092;2022-09-16T09:35:45;13.90;99.90
7427;DHT22;3755;59.316;18.092;2022-09-16T10:23:08;14.70;99.90
7427;DHT22;3755;59.316;18.092;2022-09-16T10:25:36;14.50;99.90
7427;DHT22;3755;59.316;18.092;2022-09-16T10:28:15;14.40;99.90
7427;DHT22;3755;59.316;18.092;2022-09-16T10:30:46;14.40;99.90
7427;DHT22;3755;59.316;18.092;2022-09-16T10:33:18;14.60;99.90
7427;DHT22;3755;59.316;18.092;2022-09-16T10:35:56;14.60;99.90
7427;DHT22;3755;59.316;18.092;2022-09-16T10:55:19;15.30;99.90
7427;DHT22;3755;59.316;18.092;2022-09-16T10:58:07;15.10;99.90
7427;DHT22;3755;59.316;18.092;2022-09-16T11:01:15;15.30;99.90
7427;DHT22;3755;59.316;18.092;2022-09-16T11:07:29;15.50;99.90
7427;DHT22;3755;59.316;18.092;2022-09-16T11:10:36;15.30;99.90
7427;DHT22;3755;59.316;18.092;2022-09-16T11:19:51;15.90;99.90
7427;DHT22;3755;59.316;18.092;2022-09-16T11:22:53;16.20;99.90
7427;DHT22;3755;59.316;18.092;2022-09-16T11:25:32;16.40;99.90
7427;DHT22;3755;59.316;18.092;2022-09-16T11:28:17;16.30;99.90
7427;DHT22;3755;59.316;18.092;2022-09-16T11:30:54;16.10;99.90
7427;DHT22;3755;59.316;18.092;2022-09-16T11:33:30;15.80;99.90
7427;DHT22;3755;59.316;18.092;2022-09-16T11:39:28;15.10;99.90
7427;DHT22;3755;59.316;18.092;2022-09-16T11:42:06;14.30;99.90
7427;DHT22;3755;59.316;18.092;2022-09-16T11:44:56;13.40;99.90
7427;DHT22;3755;59.316;18.092;2022-09-16T11:47:43;13.00;99.90
7427;DHT22;3755;59.316;18.092;2022-09-16T11:50:33;12.60;99.90
7427;DHT22;3755;59.316;18.092;2022-09-16T12:14:28;12.20;99.90
7427;DHT22;3755;59.316;18.092;2022-09-16T12:17:09;12.40;99.90
7427;DHT22;3755;59.316;18.092;2022-09-16T12:19:46;12.70;99.90
7427;DHT22;3755;59.316;18.092;2022-09-16T12:22:32;12.80;99.90
7427;DHT22;3755;59.316;18.092;2022-09-16T12:25:18;13.00;99.90
7427;DHT22;3755;59.316;18.092;2022-09-16T12:27:51;13.30;99.90
7427;DHT22;3755;59.316;18.092;2022-09-16T12:30:26;13.40;99.90
7427;DHT22;3755;59.316;18.092;2022-09-16T12:36:36;13.50;99.90
7427;DHT22;3755;59.316;18.092;2022-09-16T12:39:30;13.30;99.90
7427;DHT22;3755;59.316;18.092;2022-09-16T12:46:01;13.20;99.90
7427;DHT22;3755;59.316;18.092;2022-09-16T12:49:40;12.90;99.90
7427;DHT22;3755;59.316;18.092;2022-09-16T13:00:14;12.50;99.90
7427;DHT22;3755;59.316;18.092;2022-09-16T13:03:02;12.60;99.90
7427;DHT22;3755;59.316;18.092;2022-09-16T13:05:34;12.60;99.90
7427;DHT22;3755;59.316;18.092;2022-09-16T13:08:19;12.40;99.90
7427;DHT22;3755;59.316;18.092;2022-09-16T13:10:55;12.40;99.90
7427;DHT22;3755;59.316;18.092;2022-09-16T13:13:31;12.30;99.90
7427;DHT22;3755;59.316;18.092;2022-09-16T13:16:01;12.30;99.90
7427;DHT22;3755;59.316;18.092;2022-09-16T13:19:03;12.30;99.90
7427;DHT22;3755;59.316;18.092;2022-09-16T13:21:55;12.30;99.90
7427;DHT22;3755;59.316;18.092;2022-09-16T13:24:29;12.30;99.90
7427;DHT22;3755;59.316;18.092;2022-09-16T13:26:59;12.30;99.90
7427;DHT22;3755;59.316;18.092;2022-09-16T13:32:39;12.40;99.90
7427;DHT22;3755;59.316;18.092;2022-09-16T13:35:33;12.30;99.90
7427;DHT22;3755;59.316;18.092;2022-09-16T13:45:17;12.70;99.90
7427;DHT22;3755;59.316;18.092;2022-09-16T13:48:11;12.70;99.90
7427;DHT22;3755;59.316;18.092;2022-09-16T13:50:50;12.70;99.90
7427;DHT22;3755;59.316;18.092;2022-09-16T13:53:36;12.70;99.90
7427;DHT22;3755;59.316;18.092;2022-09-16T13:56:53;12.90;99.90
7427;DHT22;3755;59.316;18.092;2022-09-16T13:59:38;12.90;99.90
7427;DHT22;3755;59.316;18.092;2022-09-16T14:02:17;12.90;99.90
7427;DHT22;3755;59.316;18.092;2022-09-16T14:05:04;12.90;99.90
7427;DHT22;3755;59.316;18.092;2022-09-16T14:07:55;12.90;99.90
7427;DHT22;3755;59.316;18.092;2022-09-16T14:10:34;12.90;99.90
7427;DHT22;3755;59.316;18.092;2022-09-16T14:13:20;13.00;99.90
7427;DHT22;3755;59.316;18.092;2022-09-16T14:16:02;13.00;99.90
7427;DHT22;3755;59.316;18.092;2022-09-16T14:18:50;13.10;99.90
7427;DHT22;3755;59.316;18.092;2022-09-16T14:21:35;13.10;99.90
7427;DHT22;3755;59.316;18.092;2022-09-16T14:24:16;13.00;99.90
7427;DHT22;3755;59.316;18.092;2022-09-16T14:26:55;12.70;99.90
7427;DHT22;3755;59.316;18.092;2022-09-16T14:29:31;12.60;99.90
7427;DHT22;3755;59.316;18.092;2022-09-16T14:32:02;12.60;99.90
7427;DHT22;3755;59.316;18.092;2022-09-16T14:34:32;12.60;99.90
7427;DHT22;3755;59.316;18.092;2022-09-16T14:37:01;12.60;99.90
7427;DHT22;3755;59.316;18.092;2022-09-16T14:39:33;12.60;99.90
7427;DHT22;3755;59.316;18.092;2022-09-16T14:42:05;12.70;99.90
7427;DHT22;3755;59.316;18.092;2022-09-16T14:44:35;12.80;99.90
7427;DHT22;3755;59.316;18.092;2022-09-16T14:47:08;12.70;99.90
7427;DHT22;3755;59.316;18.092;2022-09-16T14:49:42;12.80;99.90
7427;DHT22;3755;59.316;18.092;2022-09-16T14:52:18;12.80;99.90
7427;DHT22;3755;59.316;18.092;2022-09-16T14:55:26;12.80;99.90
7427;DHT22;3755;59.316;18.092;2022-09-16T14:57:55;12.90;99.90
7427;DHT22;3755;59.316;18.092;2022-09-16T15:00:26;12.90;99.90
7427;DHT22;3755;59.316;18.092;2022-09-16T15:02:57;13.00;99.90
7427;DHT22;3755;59.316;18.092;2022-09-16T15:05:31;13.10;99.90
7427;DHT22;3755;59.316;18.092;2022-09-16T15:08:07;13.10;99.90
7427;DHT22;3755;59.316;18.092;2022-09-16T15:11:15;13.10;99.90
7427;DHT22;3755;59.316;18.092;2022-09-16T15:13:58;13.00;99.90
7427;DHT22;3755;59.316;18.092;2022-09-16T15:16:26;12.90;99.90
7427;DHT22;3755;59.316;18.092;2022-09-16T15:18:56;13.30;99.90
7427;DHT22;3755;59.316;18.092;2022-09-16T15:21:25;13.00;99.90
7427;DHT22;3755;59.316;18.092;2022-09-16T15:23:55;13.00;99.90
7427;DHT22;3755;59.316;18.092;2022-09-16T15:26:29;13.10;99.90
7427;DHT22;3755;59.316;18.092;2022-09-16T15:29:27;12.90;99.90
7427;DHT22;3755;59.316;18.092;2022-09-16T15:32:13;12.80;99.90
7427;DHT22;3755;59.316;18.092;2022-09-16T15:34:44;12.80;99.90
7427;DHT22;3755;59.316;18.092;2022-09-16T15:37:31;12.80;99.90
7427;DHT22;3755;59.316;18.092;2022-09-16T15:40:20;12.90;99.90
7427;DHT22;3755;59.316;18.092;2022-09-16T15:43:03;12.80;99.90
7427;DHT22;3755;59.316;18.092;2022-09-16T15:45:31;12.80;99.90
7427;DHT22;3755;59.316;18.092;2022-09-16T15:48:01;12.70;99.90
7427;DHT22;3755;59.316;18.092;2022-09-16T15:50:35;12.70;99.90
7427;DHT22;3755;59.316;18.092;2022-09-16T15:53:08;12.80;99.90
7427;DHT22;3755;59.316;18.092;2022-09-16T15:55:39;12.70;99.90
7427;DHT22;3755;59.316;18.092;2022-09-16T15:58:12;12.70;99.90
7427;DHT22;3755;59.316;18.092;2022-09-16T16:00:58;12.60;99.90
7427;DHT22;3755;59.316;18.092;2022-09-16T16:03:30;12.50;99.90
7427;DHT22;3755;59.316;18.092;2022-09-16T16:06:04;12.30;99.90
7427;DHT22;3755;59.316;18.092;2022-09-16T16:08:44;12.10;99.90
7427;DHT22;3755;59.316;18.092;2022-09-16T16:11:13;12.00;99.90
7427;DHT22;3755;59.316;18.092;2022-09-16T16:13:42;12.00;99.90
7427;DHT22;3755;59.316;18.092;2022-09-16T16:16:12;11.90;99.90
7427;DHT22;3755;59.316;18.092;2022-09-16T16:18:42;11.90;99.90
7427;DHT22;3755;59.316;18.092;2022-09-16T16:21:12;11.90;99.90
7427;DHT22;3755;59.316;18.092;2022-09-16T16:23:46;11.90;99.90
7427;DHT22;3755;59.316;18.092;2022-09-16T16:26:13;11.90;99.90
7427;DHT22;3755;59.316;18.092;2022-09-16T16:28:42;11.90;99.90
7427;DHT22;3755;59.316;18.092;2022-09-16T16:31:12;11.80;99.90
7427;DHT22;3755;59.316;18.092;2022-09-16T16:33:43;11.80;99.90
7427;DHT22;3755;59.316;18.092;2022-09-16T16:36:13;11.70;99.90
7427;DHT22;3755;59.316;18.092;2022-09-16T16:38:41;11.70;99.90
7427;DHT22;3755;59.316;18.092;2022-09-16T16:41:10;11.70;99.90
7427;DHT22;3755;59.316;18.092;2022-09-16T16:43:39;11.60;99.90
7427;DHT22;3755;59.316;18.092;2022-09-16T16:46:08;11.60;99.90
7427;DHT22;3755;59.316;18.092;2022-09-16T16:48:35;11.60;99.90
7427;DHT22;3755;59.316;18.092;2022-09-16T16:51:05;11.50;99.90
7427;DHT22;3755;59.316;18.092;2022-09-16T16:53:34;11.50;99.90
7427;DHT22;3755;59.316;18.092;2022-09-16T16:56:02;11.50;99.90
7427;DHT22;3755;59.316;18.092;2022-09-16T16:58:30;11.50;99.90
7427;DHT22;3755;59.316;18.092;2022-09-16T17:01:06;11.50;99.90
7427;DHT22;3755;59.316;18.092;2022-09-16T17:03:35;11.50;99.90
7427;DHT22;3755;59.316;18.092;2022-09-16T17:06:02;11.60;99.90
7427;DHT22;3755;59.316;18.092;2022-09-16T17:08:32;11.60;99.90
7427;DHT22;3755;59.316;18.092;2022-09-16T17:11:06;11.60;99.90
7427;DHT22;3755;59.316;18.092;2022-09-16T17:13:35;11.60;99.90
7427;DHT22;3755;59.316;18.092;2022-09-16T17:16:10;11.60;99.90
7427;DHT22;3755;59.316;18.092;2022-09-16T17:18:46;11.70;99.90
7427;DHT22;3755;59.316;18.092;2022-09-16T17:21:28;11.70;99.90
7427;DHT22;3755;59.316;18.092;2022-09-16T17:23:57;11.70;99.90
7427;DHT22;3755;59.316;18.092;2022-09-16T17:26:25;11.70;99.90
7427;DHT22;3755;59.316;18.092;2022-09-16T17:28:53;11.70;99.90
7427;DHT22;3755;59.316;18.092;2022-09-16T17:31:27;11.80;99.90
7427;DHT22;3755;59.316;18.092;2022-09-16T17:34:00;11.70;99.90
7427;DHT22;3755;59.316;18.092;2022-09-16T17:36:42;11.70;99.90
7427;DHT22;3755;59.316;18.092;2022-09-16T17:39:13;11.70;99.90
7427;DHT22;3755;59.316;18.092;2022-09-16T17:41:42;11.80;99.90
7427;DHT22;3755;59.316;18.092;2022-09-16T17:44:12;11.80;99.90
7427;DHT22;3755;59.316;18.092;2022-09-16T17:46:40;11.80;99.90
7427;DHT22;3755;59.316;18.092;2022-09-16T17:49:13;11.80;99.90
7427;DHT22;3755;59.316;18.092;2022-09-16T17:51:40;11.80;99.90
7427;DHT22;3755;59.316;18.092;2022-09-16T17:54:07;11.80;99.90
7427;DHT22;3755;59.316;18.092;2022-09-16T17:56:35;11.80;99.90
7427;DHT22;3755;59.316;18.092;2022-09-16T17:59:02;11.80;99.90
7427;DHT22;3755;59.316;18.092;2022-09-16T18:01:30;11.90;99.90
7427;DHT22;3755;59.316;18.092;2022-09-16T18:03:57;11.90;99.90
7427;DHT22;3755;59.316;18.092;2022-09-16T18:06:29;11.90;99.90
7427;DHT22;3755;59.316;18.092;2022-09-16T18:08:58;11.90;99.90
7427;DHT22;3755;59.316;18.092;2022-09-16T18:11:26;11.90;99.90
7427;DHT22;3755;59.316;18.092;2022-09-16T18:13:54;11.90;99.90
7427;DHT22;3755;59.316;18.092;2022-09-16T18:16:23;11.90;99.90
7427;DHT22;3755;59.316;18.092;2022-09-16T18:18:52;11.90;99.90
7427;DHT22;3755;59.316;18.092;2022-09-16T18:21:20;11.90;99.90
7427;DHT22;3755;59.316;18.092;2022-09-16T18:23:52;11.90;99.90
7427;DHT22;3755;59.316;18.092;2022-09-16T18:26:19;11.90;99.90
7427;DHT22;3755;59.316;18.092;2022-09-16T18:28:47;11.90;99.90
7427;DHT22;3755;59.316;18.092;2022-09-16T18:31:19;11.90;99.90
7427;DHT22;3755;59.316;18.092;2022-09-16T18:33:50;11.80;99.90
7427;DHT22;3755;59.316;18.092;2022-09-16T18:36:18;11.80;99.90
7427;DHT22;3755;59.316;18.092;2022-09-16T18:38:51;11.80;99.90
7427;DHT22;3755;59.316;18.092;2022-09-16T18:41:20;11.80;99.90
7427;DHT22;3755;59.316;18.092;2022-09-16T18:43:53;11.70;99.90
7427;DHT22;3755;59.316;18.092;2022-09-16T18:46:22;11.70;99.90
7427;DHT22;3755;59.316;18.092;2022-09-16T18:48:51;11.70;99.90
7427;DHT22;3755;59.316;18.092;2022-09-16T18:51:24;11.60;99.90